sensor_id;sensor_type;location;lat;lon;timestamp;pressure;altitude;pressure_sealevel;temperature;humidity
74905;BME280;63465;50.862;6.220;2023-05-29T00:01:49;100397.97;;;14.22;100.00
74905;BME280;63465;50.862;6.220;2023-05-29T00:04:14;100400.63;;;14.22;100.00
74905;BME280;63465;50.862;6.220;2023-05-29T00:06:39;100409.50;;;14.22;100.00
74905;BME280;63465;50.862;6.220;2023-05-29T00:09:06;100404.63;;;14.13;100.00
74905;BME280;63465;50.862;6.220;2023-05-29T00:11:31;100406.06;;;14.20;100.00
74905;BME280;63465;50.862;6.220;2023-05-29T00:13:56;100404.63;;;14.13;100.00
74905;BME280;63465;50.862;6.220;2023-05-29T00:16:22;100412.41;;;14.18;100.00
74905;BME280;63465;50.862;6.220;2023-05-29T00:18:49;100410.78;;;14.15;100.00
74905;BME280;63465;50.862;6.220;2023-05-29T00:21:15;100404.03;;;14.08;100.00
74905;BME280;63465;50.862;6.220;2023-05-29T00:23:41;100403.41;;;14.03;100.00
74905;BME280;63465;50.862;6.220;2023-05-29T00:26:06;100407.03;;;13.84;100.00
74905;BME280;63465;50.862;6.220;2023-05-29T00:28:32;100414.25;;;13.82;100.00
74905;BME280;63465;50.862;6.220;2023-05-29T00:30:57;100414.25;;;13.82;100.00
74905;BME280;63465;50.862;6.220;2023-05-29T00:33:23;100411.88;;;13.76;100.00
74905;BME280;63465;50.862;6.220;2023-05-29T00:35:48;100419.88;;;13.76;100.00
74905;BME280;63465;50.862;6.220;2023-05-29T00:38:13;100421.69;;;13.76;100.00
74905;BME280;63465;50.862;6.220;2023-05-29T00:40:42;100412.50;;;13.64;100.00
74905;BME280;63465;50.862;6.220;2023-05-29T00:43:07;100412.81;;;13.75;100.00
74905;BME280;63465;50.862;6.220;2023-05-29T00:45:32;100410.00;;;13.78;100.00
74905;BME280;63465;50.862;6.220;2023-05-29T00:48:02;100412.91;;;13.73;100.00
74905;BME280;63465;50.862;6.220;2023-05-29T00:50:28;100412.34;;;13.67;100.00
74905;BME280;63465;50.862;6.220;2023-05-29T00:52:54;100417.69;;;13.67;100.00
74905;BME280;63465;50.862;6.220;2023-05-29T00:55:19;100413.91;;;13.53;100.00
74905;BME280;63465;50.862;6.220;2023-05-29T00:57:45;100415.72;;;13.53;100.00
74905;BME280;63465;50.862;6.220;2023-05-29T01:00:12;100413.66;;;13.58;100.00
74905;BME280;63465;50.862;6.220;2023-05-29T01:02:40;100405.97;;;13.52;100.00
74905;BME280;63465;50.862;6.220;2023-05-29T01:05:06;100414.81;;;13.35;100.00
74905;BME280;63465;50.862;6.220;2023-05-29T01:07:32;100417.31;;;13.38;100.00
74905;BME280;63465;50.862;6.220;2023-05-29T01:09:58;100415.69;;;13.35;100.00
74905;BME280;63465;50.862;6.220;2023-05-29T01:12:36;100415.09;;;13.29;100.00
74905;BME280;63465;50.862;6.220;2023-05-29T01:15:24;100415.78;;;13.34;100.00
74905;BME280;63465;50.862;6.220;2023-05-29T01:26:01;100420.53;;;13.08;100.00
74905;BME280;63465;50.862;6.220;2023-05-29T01:28:38;100428.56;;;13.26;100.00
74905;BME280;63465;50.862;6.220;2023-05-29T01:31:07;100422.59;;;13.01;100.00
74905;BME280;63465;50.862;6.220;2023-05-29T01:33:32;100428.22;;;12.95;100.00
74905;BME280;63465;50.862;6.220;2023-05-29T01:35:58;100425.63;;;12.94;100.00
74905;BME280;63465;50.862;6.220;2023-05-29T01:38:23;100430.91;;;12.76;100.00
74905;BME280;63465;50.862;6.220;2023-05-29T01:40:48;100431.75;;;12.77;100.00
74905;BME280;63465;50.862;6.220;2023-05-29T01:43:14;100429.78;;;12.61;100.00
74905;BME280;63465;50.862;6.220;2023-05-29T01:45:40;100430.75;;;12.60;100.00
74905;BME280;63465;50.862;6.220;2023-05-29T01:48:06;100438.00;;;12.57;100.00
74905;BME280;63465;50.862;6.220;2023-05-29T01:50:32;100440.38;;;12.63;100.00
74905;BME280;63465;50.862;6.220;2023-05-29T01:52:58;100444.41;;;12.53;100.00
74905;BME280;63465;50.862;6.220;2023-05-29T01:55:23;100451.00;;;12.44;100.00
74905;BME280;63465;50.862;6.220;2023-05-29T01:57:49;100448.28;;;12.64;100.00
74905;BME280;63465;50.862;6.220;2023-05-29T02:00:17;100445.53;;;12.47;100.00
74905;BME280;63465;50.862;6.220;2023-05-29T02:02:42;100457.59;;;12.35;100.00
74905;BME280;63465;50.862;6.220;2023-05-29T02:05:08;100452.84;;;12.42;100.00
74905;BME280;63465;50.862;6.220;2023-05-29T02:07:34;100448.28;;;12.25;100.00
74905;BME280;63465;50.862;6.220;2023-05-29T02:10:02;100458.97;;;12.23;100.00
74905;BME280;63465;50.862;6.220;2023-05-29T02:12:28;100459.44;;;12.12;100.00
74905;BME280;63465;50.862;6.220;2023-05-29T02:14:53;100460.81;;;12.02;100.00
74905;BME280;63465;50.862;6.220;2023-05-29T02:17:19;100457.47;;;12.18;100.00
74905;BME280;63465;50.862;6.220;2023-05-29T02:19:45;100454.72;;;11.99;100.00
74905;BME280;63465;50.862;6.220;2023-05-29T02:22:11;100466.06;;;12.04;100.00
74905;BME280;63465;50.862;6.220;2023-05-29T02:24:37;100462.25;;;12.09;100.00
74905;BME280;63465;50.862;6.220;2023-05-29T02:27:02;100468.22;;;11.94;100.00
74905;BME280;63465;50.862;6.220;2023-05-29T02:29:28;100471.63;;;11.98;100.00
74905;BME280;63465;50.862;6.220;2023-05-29T02:31:53;100472.72;;;11.92;100.00
74905;BME280;63465;50.862;6.220;2023-05-29T02:34:18;100467.97;;;11.78;100.00
74905;BME280;63465;50.862;6.220;2023-05-29T02:36:44;100472.06;;;11.87;100.00
74905;BME280;63465;50.862;6.220;2023-05-29T02:39:09;100468.84;;;11.78;100.00
74905;BME280;63465;50.862;6.220;2023-05-29T02:41:34;100479.72;;;11.72;100.00
74905;BME280;63465;50.862;6.220;2023-05-29T02:44:00;100480.84;;;11.67;100.00
74905;BME280;63465;50.862;6.220;2023-05-29T02:46:25;100481.72;;;11.67;100.00
74905;BME280;63465;50.862;6.220;2023-05-29T02:48:50;100484.88;;;11.55;100.00
74905;BME280;63465;50.862;6.220;2023-05-29T02:51:16;100479.81;;;11.49;100.00
74905;BME280;63465;50.862;6.220;2023-05-29T02:53:41;100476.78;;;11.36;100.00
74905;BME280;63465;50.862;6.220;2023-05-29T02:56:07;100484.13;;;11.29;100.00
74905;BME280;63465;50.862;6.220;2023-05-29T02:58:34;100482.13;;;11.34;100.00
74905;BME280;63465;50.862;6.220;2023-05-29T03:01:01;100483.88;;;11.35;100.00
74905;BME280;63465;50.862;6.220;2023-05-29T03:03:29;100480.78;;;11.24;100.00
74905;BME280;63465;50.862;6.220;2023-05-29T03:05:54;100497.47;;;11.28;100.00
74905;BME280;63465;50.862;6.220;2023-05-29T03:08:20;100492.56;;;11.17;100.00
74905;BME280;63465;50.862;6.220;2023-05-29T03:10:45;100494.34;;;11.16;100.00
74905;BME280;63465;50.862;6.220;2023-05-29T03:13:12;100491.06;;;11.10;100.00
74905;BME280;63465;50.862;6.220;2023-05-29T03:15:37;100495.78;;;11.03;100.00
74905;BME280;63465;50.862;6.220;2023-05-29T03:18:03;100495.00;;;11.23;100.00
74905;BME280;63465;50.862;6.220;2023-05-29T03:20:28;100498.84;;;10.92;100.00
74905;BME280;63465;50.862;6.220;2023-05-29T03:22:53;100498.59;;;10.98;100.00
74905;BME280;63465;50.862;6.220;2023-05-29T03:25:20;100502.97;;;10.99;100.00
74905;BME280;63465;50.862;6.220;2023-05-29T03:27:45;100496.13;;;10.94;100.00
74905;BME280;63465;50.862;6.220;2023-05-29T03:30:11;100498.13;;;10.87;100.00
74905;BME280;63465;50.862;6.220;2023-05-29T03:32:37;100496.47;;;10.84;100.00
74905;BME280;63465;50.862;6.220;2023-05-29T03:35:02;100504.09;;;10.94;100.00
74905;BME280;63465;50.862;6.220;2023-05-29T03:37:29;100503.72;;;10.79;100.00
74905;BME280;63465;50.862;6.220;2023-05-29T03:39:54;100504.50;;;10.83;100.00
74905;BME280;63465;50.862;6.220;2023-05-29T03:42:20;100508.16;;;10.79;100.00
74905;BME280;63465;50.862;6.220;2023-05-29T03:44:45;100505.34;;;10.83;100.00
74905;BME280;63465;50.862;6.220;2023-05-29T03:47:10;100508.13;;;10.80;100.00
74905;BME280;63465;50.862;6.220;2023-05-29T03:49:36;100504.72;;;10.77;100.00
74905;BME280;63465;50.862;6.220;2023-05-29T03:52:01;100500.25;;;10.77;100.00
74905;BME280;63465;50.862;6.220;2023-05-29T03:54:26;100498.28;;;10.82;100.00
74905;BME280;63465;50.862;6.220;2023-05-29T03:56:51;100507.00;;;10.62;100.00
74905;BME280;63465;50.862;6.220;2023-05-29T03:59:17;100514.44;;;10.76;100.00
74905;BME280;63465;50.862;6.220;2023-05-29T04:01:42;100509.31;;;10.71;100.00
74905;BME280;63465;50.862;6.220;2023-05-29T04:04:07;100520.75;;;10.74;100.00
74905;BME280;63465;50.862;6.220;2023-05-29T04:06:33;100523.41;;;10.74;100.00
74905;BME280;63465;50.862;6.220;2023-05-29T04:08:58;100521.50;;;10.77;100.00
74905;BME280;63465;50.862;6.220;2023-05-29T04:11:24;100513.88;;;10.92;100.00
74905;BME280;63465;50.862;6.220;2023-05-29T04:13:49;100525.78;;;10.81;100.00
74905;BME280;63465;50.862;6.220;2023-05-29T04:16:15;100531.16;;;10.80;100.00
74905;BME280;63465;50.862;6.220;2023-05-29T04:18:41;100533.56;;;10.86;100.00
74905;BME280;63465;50.862;6.220;2023-05-29T04:21:06;100545.13;;;10.85;100.00
74905;BME280;63465;50.862;6.220;2023-05-29T04:23:31;100545.38;;;10.77;100.00
74905;BME280;63465;50.862;6.220;2023-05-29T04:25:57;100540.72;;;10.84;100.00
74905;BME280;63465;50.862;6.220;2023-05-29T04:28:22;100543.38;;;10.84;100.00
74905;BME280;63465;50.862;6.220;2023-05-29T04:30:48;100548.34;;;10.93;100.00
74905;BME280;63465;50.862;6.220;2023-05-29T04:33:14;100544.44;;;11.03;100.00
74905;BME280;63465;50.862;6.220;2023-05-29T04:35:40;100546.56;;;10.94;100.00
74905;BME280;63465;50.862;6.220;2023-05-29T04:38:08;100548.22;;;10.96;100.00
74905;BME280;63465;50.862;6.220;2023-05-29T04:40:34;100557.75;;;11.02;100.00
74905;BME280;63465;50.862;6.220;2023-05-29T04:43:01;100559.91;;;10.92;100.00
74905;BME280;63465;50.862;6.220;2023-05-29T04:45:27;100554.88;;;10.84;100.00
74905;BME280;63465;50.862;6.220;2023-05-29T04:47:53;100559.50;;;11.03;100.00
74905;BME280;63465;50.862;6.220;2023-05-29T04:50:22;100552.34;;;11.05;100.00
74905;BME280;63465;50.862;6.220;2023-05-29T04:52:48;100556.41;;;10.90;100.00
74905;BME280;63465;50.862;6.220;2023-05-29T04:55:13;100556.56;;;11.11;100.00
74905;BME280;63465;50.862;6.220;2023-05-29T04:57:40;100552.72;;;11.18;100.00
74905;BME280;63465;50.862;6.220;2023-05-29T05:00:06;100548.47;;;11.14;100.00
74905;BME280;63465;50.862;6.220;2023-05-29T05:02:33;100556.03;;;11.24;100.00
74905;BME280;63465;50.862;6.220;2023-05-29T05:04:58;100557.06;;;11.20;100.00
74905;BME280;63465;50.862;6.220;2023-05-29T05:07:24;100551.28;;;11.33;100.00
74905;BME280;63465;50.862;6.220;2023-05-29T05:09:49;100567.75;;;11.42;100.00
74905;BME280;63465;50.862;6.220;2023-05-29T05:12:15;100558.84;;;11.43;100.00
74905;BME280;63465;50.862;6.220;2023-05-29T05:14:40;100560.34;;;11.51;100.00
74905;BME280;63465;50.862;6.220;2023-05-29T05:17:06;100557.25;;;11.16;100.00
74905;BME280;63465;50.862;6.220;2023-05-29T05:19:31;100565.03;;;11.44;100.00
74905;BME280;63465;50.862;6.220;2023-05-29T05:21:56;100566.75;;;11.45;100.00
74905;BME280;63465;50.862;6.220;2023-05-29T05:24:22;100564.88;;;11.49;100.00
74905;BME280;63465;50.862;6.220;2023-05-29T05:26:47;100576.00;;;11.58;100.00
74905;BME280;63465;50.862;6.220;2023-05-29T05:29:13;100577.19;;;11.73;100.00
74905;BME280;63465;50.862;6.220;2023-05-29T05:31:38;100576.41;;;11.48;100.00
74905;BME280;63465;50.862;6.220;2023-05-29T05:34:04;100573.88;;;11.45;100.00
74905;BME280;63465;50.862;6.220;2023-05-29T05:36:29;100581.59;;;11.51;100.00
74905;BME280;63465;50.862;6.220;2023-05-29T05:38:54;100583.13;;;11.58;100.00
74905;BME280;63465;50.862;6.220;2023-05-29T05:41:19;100592.88;;;11.57;100.00
74905;BME280;63465;50.862;6.220;2023-05-29T05:43:46;100588.88;;;11.69;100.00
74905;BME280;63465;50.862;6.220;2023-05-29T05:46:11;100591.03;;;11.82;100.00
74905;BME280;63465;50.862;6.220;2023-05-29T05:48:39;100582.25;;;11.80;100.00
74905;BME280;63465;50.862;6.220;2023-05-29T05:51:05;100592.38;;;11.70;100.00
74905;BME280;63465;50.862;6.220;2023-05-29T05:53:31;100596.09;;;11.88;100.00
74905;BME280;63465;50.862;6.220;2023-05-29T05:55:56;100592.41;;;11.92;100.00
74905;BME280;63465;50.862;6.220;2023-05-29T05:58:22;100593.88;;;11.77;100.00
74905;BME280;63465;50.862;6.220;2023-05-29T06:00:47;100588.38;;;12.05;100.00
74905;BME280;63465;50.862;6.220;2023-05-29T06:03:12;100596.47;;;12.02;100.00
74905;BME280;63465;50.862;6.220;2023-05-29T06:05:37;100588.69;;;11.98;100.00
74905;BME280;63465;50.862;6.220;2023-05-29T06:08:05;100593.56;;;12.08;100.00
74905;BME280;63465;50.862;6.220;2023-05-29T06:10:30;100595.72;;;12.41;100.00
74905;BME280;63465;50.862;6.220;2023-05-29T06:12:56;100601.50;;;12.30;100.00
74905;BME280;63465;50.862;6.220;2023-05-29T06:15:21;100591.06;;;12.26;100.00
74905;BME280;63465;50.862;6.220;2023-05-29T06:17:46;100595.13;;;12.35;100.00
74905;BME280;63465;50.862;6.220;2023-05-29T06:20:12;100599.31;;;11.98;100.00
74905;BME280;63465;50.862;6.220;2023-05-29T06:22:39;100598.00;;;12.08;100.00
74905;BME280;63465;50.862;6.220;2023-05-29T06:25:04;100592.22;;;12.61;100.00
74905;BME280;63465;50.862;6.220;2023-05-29T06:27:30;100604.75;;;12.37;100.00
74905;BME280;63465;50.862;6.220;2023-05-29T06:29:55;100604.47;;;12.65;100.00
74905;BME280;63465;50.862;6.220;2023-05-29T06:32:20;100604.66;;;12.61;100.00
74905;BME280;63465;50.862;6.220;2023-05-29T06:34:47;100605.59;;;12.60;100.00
74905;BME280;63465;50.862;6.220;2023-05-29T06:37:12;100607.91;;;12.47;100.00
74905;BME280;63465;50.862;6.220;2023-05-29T06:39:37;100609.94;;;12.62;100.00
74905;BME280;63465;50.862;6.220;2023-05-29T06:42:04;100613.81;;;13.15;100.00
74905;BME280;63465;50.862;6.220;2023-05-29T06:44:29;100612.50;;;12.84;100.00
74905;BME280;63465;50.862;6.220;2023-05-29T06:46:55;100612.38;;;13.08;100.00
74905;BME280;63465;50.862;6.220;2023-05-29T06:49:20;100606.06;;;13.30;100.00
74905;BME280;63465;50.862;6.220;2023-05-29T06:51:45;100603.34;;;13.11;100.00
74905;BME280;63465;50.862;6.220;2023-05-29T06:54:10;100607.94;;;13.28;100.00
74905;BME280;63465;50.862;6.220;2023-05-29T06:56:36;100602.78;;;13.63;100.00
74905;BME280;63465;50.862;6.220;2023-05-29T06:59:01;100611.78;;;13.98;100.00
74905;BME280;63465;50.862;6.220;2023-05-29T07:01:26;100608.38;;;13.95;100.00
74905;BME280;63465;50.862;6.220;2023-05-29T07:03:52;100607.97;;;13.66;100.00
74905;BME280;63465;50.862;6.220;2023-05-29T07:06:18;100599.78;;;13.51;100.00
74905;BME280;63465;50.862;6.220;2023-05-29T07:08:43;100615.84;;;14.24;100.00
74905;BME280;63465;50.862;6.220;2023-05-29T07:11:08;100616.03;;;14.56;98.75
74905;BME280;63465;50.862;6.220;2023-05-29T07:13:34;100615.44;;;15.20;95.12
74905;BME280;63465;50.862;6.220;2023-05-29T07:16:00;100621.31;;;15.26;93.82
74905;BME280;63465;50.862;6.220;2023-05-29T07:18:25;100610.75;;;15.07;92.80
74905;BME280;63465;50.862;6.220;2023-05-29T07:20:51;100605.19;;;15.28;93.81
74905;BME280;63465;50.862;6.220;2023-05-29T07:23:16;100599.25;;;15.05;92.94
74905;BME280;63465;50.862;6.220;2023-05-29T07:25:41;100604.16;;;15.30;91.76
74905;BME280;63465;50.862;6.220;2023-05-29T07:28:06;100603.09;;;15.98;90.98
74905;BME280;63465;50.862;6.220;2023-05-29T07:30:32;100603.50;;;15.59;89.75
74905;BME280;63465;50.862;6.220;2023-05-29T07:32:57;100600.63;;;15.79;89.53
74905;BME280;63465;50.862;6.220;2023-05-29T07:35:23;100604.66;;;15.21;90.99
74905;BME280;63465;50.862;6.220;2023-05-29T07:37:48;100598.53;;;15.68;89.45
74905;BME280;63465;50.862;6.220;2023-05-29T07:40:15;100601.84;;;15.90;88.57
74905;BME280;63465;50.862;6.220;2023-05-29T07:42:40;100600.66;;;16.56;87.93
74905;BME280;63465;50.862;6.220;2023-05-29T07:45:06;100607.78;;;15.79;86.99
74905;BME280;63465;50.862;6.220;2023-05-29T07:47:32;100607.16;;;15.74;86.03
74905;BME280;63465;50.862;6.220;2023-05-29T07:49:57;100599.09;;;16.82;85.81
74905;BME280;63465;50.862;6.220;2023-05-29T07:52:22;100603.06;;;16.30;87.12
74905;BME280;63465;50.862;6.220;2023-05-29T07:54:47;100606.31;;;16.96;83.38
74905;BME280;63465;50.862;6.220;2023-05-29T07:57:13;100600.75;;;16.54;82.51
74905;BME280;63465;50.862;6.220;2023-05-29T07:59:40;100598.16;;;16.22;84.83
74905;BME280;63465;50.862;6.220;2023-05-29T08:02:06;100602.50;;;17.43;84.96
74905;BME280;63465;50.862;6.220;2023-05-29T08:04:32;100611.69;;;16.96;84.27
74905;BME280;63465;50.862;6.220;2023-05-29T08:06:59;100612.56;;;17.11;81.44
74905;BME280;63465;50.862;6.220;2023-05-29T08:09:24;100619.81;;;17.09;83.29
74905;BME280;63465;50.862;6.220;2023-05-29T08:11:49;100618.59;;;17.00;82.43
74905;BME280;63465;50.862;6.220;2023-05-29T08:14:15;100623.28;;;17.11;82.64
74905;BME280;63465;50.862;6.220;2023-05-29T08:16:41;100639.13;;;17.44;82.30
74905;BME280;63465;50.862;6.220;2023-05-29T08:19:06;100623.25;;;16.97;82.77
74905;BME280;63465;50.862;6.220;2023-05-29T08:21:32;100630.47;;;17.10;81.67
74905;BME280;63465;50.862;6.220;2023-05-29T08:23:58;100628.53;;;17.85;81.57
74905;BME280;63465;50.862;6.220;2023-05-29T08:26:23;100630.47;;;17.68;79.76
74905;BME280;63465;50.862;6.220;2023-05-29T08:28:48;100629.31;;;17.72;80.35
74905;BME280;63465;50.862;6.220;2023-05-29T08:31:14;100630.84;;;17.91;80.23
74905;BME280;63465;50.862;6.220;2023-05-29T08:33:39;100637.19;;;17.46;78.69
74905;BME280;63465;50.862;6.220;2023-05-29T08:36:05;100634.47;;;17.61;80.31
74905;BME280;63465;50.862;6.220;2023-05-29T08:38:30;100635.50;;;18.02;78.01
74905;BME280;63465;50.862;6.220;2023-05-29T08:40:57;100633.72;;;17.59;78.56
74905;BME280;63465;50.862;6.220;2023-05-29T08:43:27;100625.09;;;17.82;77.98
74905;BME280;63465;50.862;6.220;2023-05-29T08:45:59;100622.91;;;18.57;76.08
74905;BME280;63465;50.862;6.220;2023-05-29T08:48:26;100616.97;;;18.11;77.15
74905;BME280;63465;50.862;6.220;2023-05-29T08:50:54;100628.91;;;17.93;79.12
74905;BME280;63465;50.862;6.220;2023-05-29T08:53:21;100616.88;;;19.06;76.19
74905;BME280;63465;50.862;6.220;2023-05-29T08:55:47;100617.16;;;18.08;77.25
74905;BME280;63465;50.862;6.220;2023-05-29T08:58:13;100628.16;;;17.91;77.62
74905;BME280;63465;50.862;6.220;2023-05-29T09:00:39;100633.38;;;18.07;77.90
74905;BME280;63465;50.862;6.220;2023-05-29T09:03:06;100632.59;;;18.99;76.50
74905;BME280;63465;50.862;6.220;2023-05-29T09:05:32;100627.25;;;18.32;75.64
74905;BME280;63465;50.862;6.220;2023-05-29T09:07:57;100635.06;;;19.41;74.04
74905;BME280;63465;50.862;6.220;2023-05-29T09:10:24;100628.00;;;18.34;74.94
74905;BME280;63465;50.862;6.220;2023-05-29T09:12:51;100632.91;;;18.95;74.94
74905;BME280;63465;50.862;6.220;2023-05-29T09:15:18;100635.50;;;19.35;74.63
74905;BME280;63465;50.862;6.220;2023-05-29T09:17:52;100634.44;;;19.12;73.62
74905;BME280;63465;50.862;6.220;2023-05-29T09:20:19;100638.00;;;18.59;73.37
74905;BME280;63465;50.862;6.220;2023-05-29T09:23:02;100629.22;;;18.15;77.31
74905;BME280;63465;50.862;6.220;2023-05-29T09:25:33;100641.75;;;19.22;73.79
74905;BME280;63465;50.862;6.220;2023-05-29T09:28:03;100634.06;;;19.03;72.83
74905;BME280;63465;50.862;6.220;2023-05-29T09:30:38;100637.59;;;18.78;74.39
74905;BME280;63465;50.862;6.220;2023-05-29T09:33:06;100635.88;;;19.67;73.94
74905;BME280;63465;50.862;6.220;2023-05-29T09:35:36;100636.66;;;18.92;70.99
74905;BME280;63465;50.862;6.220;2023-05-29T09:38:02;100642.25;;;19.28;72.11
74905;BME280;63465;50.862;6.220;2023-05-29T09:40:40;100641.50;;;19.51;71.70
74905;BME280;63465;50.862;6.220;2023-05-29T09:43:09;100634.66;;;19.34;74.14
74905;BME280;63465;50.862;6.220;2023-05-29T09:45:41;100639.31;;;19.82;73.44
74905;BME280;63465;50.862;6.220;2023-05-29T09:48:10;100636.66;;;19.56;71.35
74905;BME280;63465;50.862;6.220;2023-05-29T09:50:37;100641.84;;;18.68;73.93
74905;BME280;63465;50.862;6.220;2023-05-29T09:53:02;100639.09;;;18.82;73.15
74905;BME280;63465;50.862;6.220;2023-05-29T09:55:29;100642.56;;;18.97;71.96
74905;BME280;63465;50.862;6.220;2023-05-29T09:57:57;100638.69;;;19.66;71.03
74905;BME280;63465;50.862;6.220;2023-05-29T10:00:24;100637.94;;;18.46;72.12
74905;BME280;63465;50.862;6.220;2023-05-29T10:02:49;100634.28;;;19.00;72.62
74905;BME280;63465;50.862;6.220;2023-05-29T10:05:15;100637.63;;;19.42;73.56
74905;BME280;63465;50.862;6.220;2023-05-29T10:07:44;100639.66;;;19.77;72.48
74905;BME280;63465;50.862;6.220;2023-05-29T10:10:13;100649.19;;;18.79;73.14
74905;BME280;63465;50.862;6.220;2023-05-29T10:12:43;100643.75;;;19.57;71.50
74905;BME280;63465;50.862;6.220;2023-05-29T10:15:14;100641.88;;;19.71;71.61
74905;BME280;63465;50.862;6.220;2023-05-29T10:17:47;100648.94;;;19.48;71.66
74905;BME280;63465;50.862;6.220;2023-05-29T10:20:15;100636.50;;;19.71;70.48
74905;BME280;63465;50.862;6.220;2023-05-29T10:22:54;100644.09;;;19.78;69.03
74905;BME280;63465;50.862;6.220;2023-05-29T10:25:21;100633.50;;;19.63;70.00
74905;BME280;63465;50.862;6.220;2023-05-29T10:27:47;100641.75;;;20.46;71.55
74905;BME280;63465;50.862;6.220;2023-05-29T10:33:08;100649.59;;;19.77;69.06
74905;BME280;63465;50.862;6.220;2023-05-29T10:35:46;100650.44;;;19.77;72.05
74905;BME280;63465;50.862;6.220;2023-05-29T10:38:16;100640.81;;;20.23;70.46
74905;BME280;63465;50.862;6.220;2023-05-29T10:40:44;100641.25;;;20.17;71.69
74905;BME280;63465;50.862;6.220;2023-05-29T10:45:55;100636.38;;;19.72;70.68
74905;BME280;63465;50.862;6.220;2023-05-29T10:50:54;100645.50;;;20.33;67.75
74905;BME280;63465;50.862;6.220;2023-05-29T10:53:24;100641.69;;;20.95;67.69
74905;BME280;63465;50.862;6.220;2023-05-29T10:55:51;100645.41;;;20.21;70.48
74905;BME280;63465;50.862;6.220;2023-05-29T10:58:22;100637.75;;;19.41;72.64
74905;BME280;63465;50.862;6.220;2023-05-29T11:00:51;100642.81;;;20.33;70.80
74905;BME280;63465;50.862;6.220;2023-05-29T11:03:24;100638.16;;;19.48;69.79
74905;BME280;63465;50.862;6.220;2023-05-29T11:08:42;100628.06;;;20.85;68.29
74905;BME280;63465;50.862;6.220;2023-05-29T11:11:12;100632.97;;;20.56;68.87
74905;BME280;63465;50.862;6.220;2023-05-29T11:13:37;100628.72;;;19.92;69.28
74905;BME280;63465;50.862;6.220;2023-05-29T11:16:20;100618.13;;;20.50;67.96
74905;BME280;63465;50.862;6.220;2023-05-29T11:19:09;100634.84;;;20.91;67.79
74905;BME280;63465;50.862;6.220;2023-05-29T11:24:23;100634.72;;;20.08;69.14
74905;BME280;63465;50.862;6.220;2023-05-29T11:26:50;100619.69;;;19.93;68.42
74905;BME280;63465;50.862;6.220;2023-05-29T11:29:21;100621.28;;;20.20;67.63
74905;BME280;63465;50.862;6.220;2023-05-29T11:31:47;100615.78;;;20.70;65.88
74905;BME280;63465;50.862;6.220;2023-05-29T11:34:14;100625.38;;;20.61;68.09
74905;BME280;63465;50.862;6.220;2023-05-29T11:36:40;100616.16;;;20.76;66.32
74905;BME280;63465;50.862;6.220;2023-05-29T11:39:09;100616.69;;;20.57;67.75
74905;BME280;63465;50.862;6.220;2023-05-29T11:41:34;100606.78;;;21.05;64.88
74905;BME280;63465;50.862;6.220;2023-05-29T11:44:01;100611.31;;;20.33;67.91
74905;BME280;63465;50.862;6.220;2023-05-29T11:46:30;100609.59;;;21.03;64.40
74905;BME280;63465;50.862;6.220;2023-05-29T11:48:58;100611.25;;;20.46;66.92
74905;BME280;63465;50.862;6.220;2023-05-29T11:51:24;100608.34;;;20.84;67.06
74905;BME280;63465;50.862;6.220;2023-05-29T11:53:50;100603.78;;;20.49;69.20
74905;BME280;63465;50.862;6.220;2023-05-29T11:56:26;100597.50;;;20.73;69.84
74905;BME280;63465;50.862;6.220;2023-05-29T11:58:52;100598.28;;;20.87;68.05
74905;BME280;63465;50.862;6.220;2023-05-29T12:01:22;100603.19;;;20.93;69.54
74905;BME280;63465;50.862;6.220;2023-05-29T12:03:49;100601.38;;;20.34;68.85
74905;BME280;63465;50.862;6.220;2023-05-29T12:06:14;100601.91;;;20.14;70.08
74905;BME280;63465;50.862;6.220;2023-05-29T12:08:40;100599.25;;;20.50;67.87
74905;BME280;63465;50.862;6.220;2023-05-29T12:11:05;100589.41;;;19.76;67.10
74905;BME280;63465;50.862;6.220;2023-05-29T12:13:31;100599.09;;;20.40;67.69
74905;BME280;63465;50.862;6.220;2023-05-29T12:15:58;100600.00;;;20.52;65.16
74905;BME280;63465;50.862;6.220;2023-05-29T12:18:25;100601.69;;;20.42;69.24
74905;BME280;63465;50.862;6.220;2023-05-29T12:20:56;100598.34;;;20.38;65.87
74905;BME280;63465;50.862;6.220;2023-05-29T12:23:22;100599.06;;;20.64;70.43
74905;BME280;63465;50.862;6.220;2023-05-29T12:25:47;100596.44;;;20.87;65.83
74905;BME280;63465;50.862;6.220;2023-05-29T12:28:16;100599.91;;;20.29;66.89
74905;BME280;63465;50.862;6.220;2023-05-29T12:30:46;100594.34;;;20.20;68.16
74905;BME280;63465;50.862;6.220;2023-05-29T12:33:33;100590.59;;;20.34;67.45
74905;BME280;63465;50.862;6.220;2023-05-29T12:36:05;100587.75;;;20.59;68.43
74905;BME280;63465;50.862;6.220;2023-05-29T12:38:32;100594.66;;;20.39;69.28
74905;BME280;63465;50.862;6.220;2023-05-29T12:40:57;100597.72;;;20.35;68.27
74905;BME280;63465;50.862;6.220;2023-05-29T12:43:22;100600.13;;;20.51;68.07
74905;BME280;63465;50.862;6.220;2023-05-29T12:45:56;100601.22;;;20.83;70.08
74905;BME280;63465;50.862;6.220;2023-05-29T12:48:26;100588.94;;;20.20;66.61
74905;BME280;63465;50.862;6.220;2023-05-29T12:50:51;100595.22;;;20.91;68.33
74905;BME280;63465;50.862;6.220;2023-05-29T12:53:17;100602.13;;;20.36;67.66
74905;BME280;63465;50.862;6.220;2023-05-29T12:55:43;100602.72;;;20.04;67.74
74905;BME280;63465;50.862;6.220;2023-05-29T12:58:10;100595.97;;;20.34;67.50
74905;BME280;63465;50.862;6.220;2023-05-29T13:00:38;100594.19;;;20.10;66.74
74905;BME280;63465;50.862;6.220;2023-05-29T13:03:04;100595.53;;;20.40;68.58
74905;BME280;63465;50.862;6.220;2023-05-29T13:05:30;100599.44;;;20.36;68.30